createdAt,value
2024-01-09T00:01:54.122Z,2.70
2024-01-09T00:04:21.273Z,2.60
2024-01-09T00:06:48.528Z,3.10
2024-01-09T00:09:15.628Z,3.93
2024-01-09T00:11:42.775Z,4.73
2024-01-09T00:14:12.158Z,3.17
2024-01-09T00:16:39.395Z,3.93
2024-01-09T00:19:06.623Z,3.27
2024-01-09T00:21:33.796Z,4.43
2024-01-09T00:24:00.939Z,3.27
2024-01-09T00:26:28.063Z,5.50
2024-01-09T00:28:55.239Z,4.50
2024-01-09T00:31:22.354Z,2.53
2024-01-09T00:33:51.549Z,4.43
2024-01-09T00:36:18.876Z,4.90
2024-01-09T00:38:46.012Z,5.00
2024-01-09T00:41:13.256Z,4.80
2024-01-09T00:43:40.391Z,4.83
2024-01-09T00:46:07.505Z,4.57
2024-01-09T00:48:34.762Z,4.80
2024-01-09T00:51:02.009Z,4.60
2024-01-09T00:53:29.265Z,4.50
2024-01-09T00:55:57.521Z,3.40
2024-01-09T00:58:25.429Z,4.20
2024-01-09T01:00:52.569Z,4.37
2024-01-09T01:03:19.706Z,4.13
2024-01-09T01:05:47.305Z,4.67
2024-01-09T01:08:14.515Z,4.10
2024-01-09T01:10:41.685Z,4.20
2024-01-09T01:13:08.788Z,2.63
2024-01-09T01:15:37.266Z,4.03
2024-01-09T01:18:04.613Z,4.17
2024-01-09T01:20:31.853Z,3.07
2024-01-09T01:22:59.035Z,4.57
2024-01-09T01:25:26.215Z,3.03
2024-01-09T01:27:53.400Z,3.23
2024-01-09T01:30:20.596Z,3.00
2024-01-09T01:32:47.835Z,3.80
2024-01-09T01:35:15.083Z,4.70
2024-01-09T01:37:42.305Z,3.57
2024-01-09T01:40:09.652Z,3.97
2024-01-09T01:42:36.759Z,4.07
2024-01-09T01:45:03.950Z,3.80
2024-01-09T01:47:31.285Z,4.00
2024-01-09T01:49:58.553Z,4.83
2024-01-09T01:52:25.740Z,3.63
2024-01-09T01:54:53.258Z,1.80
2024-01-09T01:57:20.364Z,1.80
2024-01-09T01:59:48.057Z,3.30
2024-01-09T02:02:16.008Z,3.70
2024-01-09T02:04:43.706Z,3.03
2024-01-09T02:07:11.600Z,4.17
2024-01-09T02:09:39.077Z,3.30
2024-01-09T02:12:06.626Z,3.40
2024-01-09T02:14:33.794Z,3.50
2024-01-09T02:17:00.999Z,3.90
2024-01-09T02:19:28.213Z,3.27
2024-01-09T02:21:55.314Z,3.20
2024-01-09T02:24:22.623Z,3.37
2024-01-09T02:27:04.180Z,3.10
2024-01-09T02:29:34.314Z,4.10
2024-01-09T02:32:03.840Z,3.13
2024-01-09T02:34:31.619Z,1.43
2024-01-09T02:36:58.773Z,1.30
2024-01-09T02:39:29.135Z,1.83
2024-01-09T02:41:56.292Z,2.88
2024-01-09T02:44:23.507Z,3.07
2024-01-09T02:46:50.724Z,2.97
2024-01-09T02:49:17.921Z,2.73
2024-01-09T02:51:45.050Z,1.97
2024-01-09T02:54:12.278Z,2.40
2024-01-09T02:56:39.604Z,3.23
2024-01-09T02:59:06.877Z,3.33
2024-01-09T03:01:34.110Z,2.77
2024-01-09T03:04:01.271Z,2.60
2024-01-09T03:06:28.605Z,2.43
2024-01-09T03:08:55.938Z,2.33
2024-01-09T03:11:23.156Z,1.40
2024-01-09T03:13:50.286Z,1.27
2024-01-09T03:16:17.518Z,2.30
2024-01-09T03:18:45.130Z,3.70
2024-01-09T03:21:12.597Z,3.37
2024-01-09T03:23:39.832Z,4.47
2024-01-09T03:26:06.999Z,3.90
2024-01-09T03:28:34.086Z,4.10
2024-01-09T03:31:01.268Z,6.07
2024-01-09T03:33:28.557Z,6.67
2024-01-09T03:35:55.751Z,4.50
2024-01-09T03:38:23.039Z,5.93
2024-01-09T03:40:51.974Z,6.17
2024-01-09T03:43:19.080Z,3.80
2024-01-09T03:45:46.288Z,4.87
2024-01-09T03:48:13.517Z,5.43
2024-01-09T03:50:40.789Z,3.63
2024-01-09T03:53:08.105Z,6.80
2024-01-09T03:55:35.244Z,4.47
2024-01-09T03:58:02.396Z,5.57
2024-01-09T04:00:29.661Z,6.10
2024-01-09T04:02:56.775Z,3.93
2024-01-09T04:05:24.056Z,5.80
2024-01-09T04:07:51.341Z,4.80
2024-01-09T04:10:18.529Z,4.70
2024-01-09T04:12:45.620Z,4.43
2024-01-09T04:15:13.024Z,3.50
2024-01-09T04:17:40.263Z,3.70
2024-01-09T04:20:08.609Z,2.63
2024-01-09T04:22:35.868Z,3.30
2024-01-09T04:25:02.999Z,2.83
2024-01-09T04:27:30.196Z,3.63
2024-01-09T04:29:57.396Z,4.07
2024-01-09T04:32:24.681Z,4.87
2024-01-09T04:34:51.848Z,3.67
2024-01-09T04:37:19.037Z,4.00
2024-01-09T04:39:46.133Z,3.30
2024-01-09T04:42:13.235Z,2.63
2024-01-09T04:44:40.439Z,2.47
2024-01-09T04:47:07.723Z,1.40
2024-01-09T04:49:34.836Z,3.20
2024-01-09T04:52:01.989Z,4.77
2024-01-09T04:54:29.108Z,4.60
2024-01-09T04:56:59.338Z,3.63
2024-01-09T04:59:26.948Z,4.07
2024-01-09T05:01:54.135Z,3.80
2024-01-09T05:04:21.248Z,4.30
2024-01-09T05:06:48.482Z,4.10
2024-01-09T05:09:15.614Z,2.67
2024-01-09T05:11:42.826Z,4.63
2024-01-09T05:14:10.050Z,1.70
2024-01-09T05:16:37.181Z,1.87
2024-01-09T05:19:04.369Z,4.13
2024-01-09T05:21:31.923Z,4.33
2024-01-09T05:23:59.308Z,2.37
2024-01-09T05:26:26.448Z,2.40
2024-01-09T05:28:53.638Z,2.40
2024-01-09T05:31:21.869Z,2.23
2024-01-09T05:33:49.473Z,2.77
2024-01-09T05:36:23.640Z,2.97
2024-01-09T05:38:52.458Z,2.50
2024-01-09T05:41:20.709Z,2.13
2024-01-09T05:43:47.885Z,2.70
2024-01-09T05:46:14.992Z,2.00
2024-01-09T05:48:43.295Z,1.57
2024-01-09T05:51:10.648Z,2.80
2024-01-09T05:53:38.262Z,2.40
2024-01-09T05:56:07.139Z,2.30
2024-01-09T05:58:34.711Z,3.03
2024-01-09T06:01:02.405Z,2.67
2024-01-09T06:03:29.705Z,1.87
2024-01-09T06:05:57.617Z,1.50
2024-01-09T06:08:25.581Z,2.17
2024-01-09T06:10:52.908Z,2.63
2024-01-09T06:13:20.090Z,2.77
2024-01-09T06:15:47.304Z,2.23
2024-01-09T06:18:14.624Z,3.23
2024-01-09T06:20:42.020Z,4.83
2024-01-09T06:23:09.245Z,5.67
2024-01-09T06:25:36.376Z,3.20
2024-01-09T06:28:03.573Z,4.57
2024-01-09T06:30:31.384Z,4.50
2024-01-09T06:32:58.632Z,4.47
2024-01-09T06:35:25.905Z,5.83
2024-01-09T06:37:53.613Z,6.93
2024-01-09T06:40:21.436Z,7.07
2024-01-09T06:42:48.953Z,6.90
2024-01-09T06:45:16.638Z,5.77
2024-01-09T06:47:44.142Z,5.70
2024-01-09T06:50:21.416Z,7.80
2024-01-09T06:52:57.404Z,4.50
2024-01-09T06:55:24.601Z,4.00
2024-01-09T06:57:51.715Z,5.23
2024-01-09T07:00:20.347Z,5.97
2024-01-09T07:02:47.716Z,5.80
2024-01-09T07:05:15.086Z,5.50
2024-01-09T07:07:49.664Z,4.70
2024-01-09T07:10:18.358Z,5.80
2024-01-09T07:12:45.516Z,6.20
2024-01-09T07:15:15.440Z,4.60
2024-01-09T07:17:43.649Z,7.30
2024-01-09T07:20:11.265Z,6.93
2024-01-09T07:22:38.586Z,5.93
2024-01-09T07:25:06.010Z,5.43
2024-01-09T07:27:33.188Z,6.90
2024-01-09T07:30:01.827Z,5.20
2024-01-09T07:32:29.132Z,8.40
2024-01-09T07:34:56.842Z,6.00
2024-01-09T07:37:24.220Z,5.83
2024-01-09T07:39:51.642Z,6.13
2024-01-09T07:42:18.811Z,4.00
2024-01-09T07:44:45.964Z,6.17
2024-01-09T07:47:13.362Z,5.63
2024-01-09T07:49:40.927Z,4.53
2024-01-09T07:52:08.249Z,6.43
2024-01-09T07:54:35.460Z,3.33
2024-01-09T07:57:02.797Z,4.43
2024-01-09T07:59:30.017Z,8.07
2024-01-09T08:01:57.823Z,5.77
2024-01-09T08:04:25.013Z,6.63
2024-01-09T08:06:52.218Z,7.03
2024-01-09T08:09:19.917Z,4.20
2024-01-09T08:11:47.948Z,5.63
2024-01-09T08:14:15.602Z,5.97
2024-01-09T08:16:43.130Z,6.77
2024-01-09T08:19:10.696Z,4.93
2024-01-09T08:21:41.638Z,7.37
2024-01-09T08:24:09.964Z,5.30
2024-01-09T08:26:37.122Z,7.30
2024-01-09T08:29:04.809Z,5.23
2024-01-09T08:31:32.133Z,5.67
2024-01-09T08:33:59.339Z,4.43
2024-01-09T08:36:26.522Z,4.13
2024-01-09T08:38:53.885Z,4.00
2024-01-09T08:41:22.316Z,5.47
2024-01-09T08:43:49.594Z,2.90
2024-01-09T08:46:16.888Z,4.97
2024-01-09T08:48:44.163Z,6.03
2024-01-09T08:51:15.226Z,5.13
2024-01-09T08:53:45.410Z,6.13
2024-01-09T08:56:12.610Z,19.50
2024-01-09T08:58:39.820Z,6.87
2024-01-09T09:01:07.079Z,6.40
2024-01-09T09:03:34.287Z,4.77
2024-01-09T09:06:02.050Z,7.47
2024-01-09T09:08:29.696Z,7.10
2024-01-09T09:10:56.803Z,6.07
2024-01-09T09:13:24.053Z,3.23
2024-01-09T09:15:51.323Z,6.30
2024-01-09T09:18:18.591Z,7.47
2024-01-09T09:20:45.877Z,7.57
2024-01-09T09:23:13.094Z,5.80
2024-01-09T09:25:40.732Z,8.60
2024-01-09T09:28:07.995Z,8.40
2024-01-09T09:30:35.524Z,6.57
2024-01-09T09:33:03.304Z,10.00
2024-01-09T09:35:30.612Z,10.13
2024-01-09T09:37:57.837Z,8.63
2024-01-09T09:40:25.010Z,7.10
2024-01-09T09:42:56.938Z,9.60
2024-01-09T09:45:24.226Z,10.03
2024-01-09T09:47:52.002Z,9.60
2024-01-09T09:50:20.173Z,8.70
2024-01-09T09:52:47.456Z,11.40
2024-01-09T09:55:15.088Z,12.87
2024-01-09T09:57:42.284Z,12.70
2024-01-09T10:00:10.033Z,11.00
2024-01-09T10:02:45.149Z,8.97
2024-01-09T10:05:17.418Z,12.20
2024-01-09T10:07:51.319Z,9.97
2024-01-09T10:10:20.469Z,10.90
2024-01-09T10:12:49.554Z,9.67
2024-01-09T10:15:18.507Z,6.07
2024-01-09T10:17:46.637Z,9.37
2024-01-09T10:20:14.331Z,9.63
2024-01-09T10:22:41.992Z,7.90
2024-01-09T10:25:11.358Z,9.83
2024-01-09T10:27:39.235Z,7.83
2024-01-09T10:30:07.133Z,10.37
2024-01-09T10:32:35.095Z,6.87
2024-01-09T10:35:04.379Z,8.80
2024-01-09T10:37:32.375Z,6.90
2024-01-09T10:39:59.987Z,8.10
2024-01-09T10:42:28.153Z,10.37
2024-01-09T10:44:59.201Z,7.20
2024-01-09T10:47:29.020Z,6.35
2024-01-09T10:49:56.240Z,8.67
2024-01-09T10:52:23.846Z,8.67
2024-01-09T10:54:51.625Z,8.63
2024-01-09T10:57:19.066Z,9.47
2024-01-09T10:59:46.914Z,9.37
2024-01-09T11:02:18.427Z,7.87
2024-01-09T11:04:46.129Z,10.30
2024-01-09T11:07:15.281Z,7.97
2024-01-09T11:09:46.942Z,9.10
2024-01-09T11:12:25.091Z,9.07
2024-01-09T11:14:54.834Z,8.90
2024-01-09T11:17:23.557Z,9.13
2024-01-09T11:19:51.614Z,9.00
2024-01-09T11:22:19.644Z,12.90
2024-01-09T11:24:50.864Z,12.33
2024-01-09T11:27:21.296Z,13.03
2024-01-09T11:29:52.384Z,9.97
2024-01-09T11:34:49.712Z,13.17
2024-01-09T11:37:20.976Z,11.87
2024-01-09T11:42:16.266Z,13.30
2024-01-09T11:44:43.501Z,11.57
2024-01-09T11:47:10.826Z,7.20
2024-01-09T11:49:38.142Z,11.25
2024-01-09T11:52:06.308Z,9.98
2024-01-09T11:54:33.649Z,9.95
2024-01-09T11:57:01.018Z,9.65
2024-01-09T11:59:28.175Z,5.47
2024-01-09T12:01:55.312Z,6.78
2024-01-09T12:04:22.497Z,6.65
2024-01-09T12:06:49.772Z,10.43
2024-01-09T12:09:16.955Z,11.93
2024-01-09T12:11:44.169Z,13.30
2024-01-09T12:14:12.469Z,15.80
2024-01-09T12:16:39.572Z,17.23
2024-01-09T12:19:06.916Z,14.23
2024-01-09T12:21:35.754Z,14.57
2024-01-09T12:24:20.312Z,14.60
2024-01-09T12:26:51.397Z,10.38
2024-01-09T12:29:18.885Z,14.02
2024-01-09T12:31:46.093Z,11.95
2024-01-09T12:34:13.681Z,13.18
2024-01-09T12:36:41.446Z,15.35
2024-01-09T12:39:13.743Z,14.75
2024-01-09T12:41:41.475Z,14.02
2024-01-09T12:44:14.600Z,11.65
2024-01-09T12:49:09.146Z,16.20
2024-01-09T12:51:37.227Z,17.75
2024-01-09T12:54:04.396Z,14.73
2024-01-09T12:56:31.641Z,15.25
2024-01-09T12:58:58.922Z,15.60
2024-01-09T13:01:29.640Z,14.93
2024-01-09T13:03:58.847Z,14.73
2024-01-09T13:06:26.474Z,15.07
2024-01-09T13:08:53.696Z,14.52
2024-01-09T13:11:20.863Z,13.85
2024-01-09T13:13:48.063Z,15.07
2024-01-09T13:16:15.249Z,13.73
2024-01-09T13:18:42.870Z,14.13
2024-01-09T13:21:10.294Z,14.38
2024-01-09T13:23:48.808Z,14.57
2024-01-09T13:26:18.846Z,14.60
2024-01-09T13:31:16.159Z,13.38
2024-01-09T13:33:43.504Z,13.52
2024-01-09T13:36:11.274Z,10.80
2024-01-09T13:38:38.388Z,12.27
2024-01-09T13:41:08.935Z,11.52
2024-01-09T13:43:36.256Z,11.30
2024-01-09T13:46:04.323Z,12.77
2024-01-09T13:48:31.706Z,12.73
2024-01-09T13:53:30.556Z,11.93
2024-01-09T13:55:58.411Z,8.73
2024-01-09T13:58:25.733Z,13.25
2024-01-09T14:00:52.904Z,9.88
2024-01-09T14:03:20.303Z,11.65
2024-01-09T14:05:47.500Z,11.07
2024-01-09T14:08:14.772Z,11.95
2024-01-09T14:10:42.567Z,13.00
2024-01-09T14:13:12.648Z,11.98
2024-01-09T14:15:40.142Z,13.55
2024-01-09T14:18:07.585Z,12.80
2024-01-09T14:20:34.792Z,12.73
2024-01-09T14:23:02.027Z,13.15
2024-01-09T14:25:29.238Z,13.93
2024-01-09T14:27:56.374Z,14.57
2024-01-09T14:30:24.044Z,8.55
2024-01-09T14:32:51.643Z,11.25
2024-01-09T14:35:20.525Z,13.63
2024-01-09T14:37:47.830Z,11.75
2024-01-09T14:40:15.168Z,13.07
2024-01-09T14:42:42.438Z,11.63
2024-01-09T14:45:11.797Z,10.63
2024-01-09T14:47:39.165Z,13.30
2024-01-09T14:50:07.248Z,12.15
2024-01-09T14:52:34.559Z,12.48
2024-01-09T14:55:01.921Z,9.90
2024-01-09T14:57:29.095Z,11.75
2024-01-09T14:59:56.237Z,12.15
2024-01-09T15:02:24.016Z,12.80
2024-01-09T15:04:51.191Z,11.40
2024-01-09T15:07:19.009Z,11.50
2024-01-09T15:09:48.676Z,12.52
2024-01-09T15:12:16.133Z,11.32
2024-01-09T15:14:43.275Z,10.95
2024-01-09T15:17:10.658Z,11.43
2024-01-09T15:19:37.948Z,10.88
2024-01-09T15:22:07.741Z,12.07
2024-01-09T15:24:34.802Z,13.15
2024-01-09T15:27:01.593Z,11.13
2024-01-09T15:29:28.372Z,7.63
2024-01-09T15:31:55.151Z,11.35
2024-01-09T15:34:23.929Z,8.18
2024-01-09T15:36:51.118Z,12.88
2024-01-09T15:39:18.150Z,12.40
2024-01-09T15:41:45.220Z,11.63
2024-01-09T15:44:12.662Z,13.05
2024-01-09T15:46:39.706Z,13.40
2024-01-09T15:49:06.448Z,13.30
2024-01-09T15:51:34.650Z,8.55
2024-01-09T15:54:02.283Z,12.38
2024-01-09T15:56:29.742Z,12.18
2024-01-09T15:58:56.951Z,10.50
2024-01-09T16:01:25.178Z,9.23
2024-01-09T16:03:53.096Z,11.38
2024-01-09T16:06:20.679Z,10.70
2024-01-09T16:08:50.657Z,9.05
2024-01-09T16:11:19.496Z,11.77
2024-01-09T16:13:50.080Z,11.50
2024-01-09T16:16:24.931Z,10.23
2024-01-09T16:18:52.638Z,10.32
2024-01-09T16:21:20.227Z,11.57
2024-01-09T16:23:48.113Z,11.98
2024-01-09T16:26:15.678Z,12.48
2024-01-09T16:28:43.594Z,10.35
2024-01-09T16:33:38.973Z,13.85
2024-01-09T16:36:06.447Z,13.65
2024-01-09T16:38:33.654Z,11.65
2024-01-09T16:41:02.876Z,13.40
2024-01-09T16:43:30.023Z,13.88
2024-01-09T16:45:57.175Z,14.32
2024-01-09T16:48:31.975Z,9.05
2024-01-09T16:53:33.656Z,11.13
2024-01-09T16:56:00.849Z,12.25
2024-01-09T16:58:28.134Z,12.27
2024-01-09T17:00:55.535Z,11.80
2024-01-09T17:03:22.919Z,11.95
2024-01-09T17:05:50.422Z,12.15
2024-01-09T17:08:17.921Z,9.30
2024-01-09T17:10:46.590Z,9.50
2024-01-09T17:13:18.024Z,10.48
2024-01-09T17:18:12.316Z,9.88
2024-01-09T17:20:39.549Z,6.60
2024-01-09T17:23:06.665Z,8.30
2024-01-09T17:25:33.897Z,8.48
2024-01-09T17:28:01.130Z,9.18
2024-01-09T17:30:28.363Z,7.97
2024-01-09T17:32:55.577Z,8.20
2024-01-09T17:35:22.871Z,8.20
2024-01-09T17:37:50.079Z,7.72
2024-01-09T17:40:18.578Z,8.18
2024-01-09T17:42:46.013Z,7.68
2024-01-09T17:45:15.798Z,8.25
2024-01-09T17:47:43.475Z,5.65
2024-01-09T17:50:10.922Z,7.90
2024-01-09T17:52:38.222Z,6.18
2024-01-09T17:55:05.890Z,7.70
2024-01-09T17:57:33.404Z,5.47
2024-01-09T18:00:00.607Z,5.95
2024-01-09T18:02:28.109Z,8.27
2024-01-09T18:04:55.524Z,6.25
2024-01-09T18:07:22.760Z,8.05
2024-01-09T18:09:49.866Z,6.18
2024-01-09T18:12:17.025Z,8.60
2024-01-09T18:14:44.197Z,7.70
2024-01-09T18:17:11.815Z,7.57
2024-01-09T18:19:39.484Z,8.00
2024-01-09T18:22:06.898Z,8.32
2024-01-09T18:24:34.642Z,7.68
2024-01-09T18:27:04.319Z,7.85
2024-01-09T18:29:34.281Z,6.63
2024-01-09T18:32:01.596Z,7.25
2024-01-09T18:34:29.029Z,8.43
2024-01-09T18:36:56.196Z,7.38
2024-01-09T18:39:23.533Z,6.40
2024-01-09T18:41:58.462Z,7.50
2024-01-09T18:44:26.597Z,6.82
2024-01-09T18:46:53.950Z,7.60
2024-01-09T18:49:21.358Z,7.03
2024-01-09T18:51:49.320Z,7.18
2024-01-09T18:54:16.762Z,6.88
2024-01-09T18:56:46.765Z,6.55
2024-01-09T18:59:15.040Z,6.70
2024-01-09T19:01:42.386Z,5.90
2024-01-09T19:04:09.877Z,6.25
2024-01-09T19:06:37.056Z,6.18
2024-01-09T19:09:09.940Z,5.85
2024-01-09T19:11:38.317Z,5.72
2024-01-09T19:14:05.709Z,6.22
2024-01-09T19:16:32.901Z,4.68
2024-01-09T19:19:00.336Z,7.78
2024-01-09T19:21:27.688Z,7.70
2024-01-09T19:23:54.848Z,7.63
2024-01-09T19:26:31.897Z,8.32
2024-01-09T19:28:59.003Z,7.03
2024-01-09T19:31:26.140Z,9.27
2024-01-09T19:33:53.550Z,8.23
2024-01-09T19:36:20.732Z,8.27
2024-01-09T19:38:47.832Z,7.45
2024-01-09T19:41:16.233Z,7.72
2024-01-09T19:43:44.713Z,5.03
2024-01-09T19:46:11.880Z,6.65
2024-01-09T19:48:39.219Z,5.68
2024-01-09T19:51:09.531Z,6.78
2024-01-09T19:53:36.825Z,5.50
2024-01-09T19:56:06.952Z,6.68
2024-01-09T19:58:34.152Z,4.97
2024-01-09T20:01:01.302Z,5.85
2024-01-09T20:03:28.522Z,6.18
2024-01-09T20:05:55.797Z,5.78
2024-01-09T20:08:25.110Z,5.25
2024-01-09T20:10:53.533Z,5.22
2024-01-09T20:13:20.715Z,6.80
2024-01-09T20:15:47.855Z,6.05
2024-01-09T20:18:15.732Z,7.18
2024-01-09T20:20:42.914Z,6.68
2024-01-09T20:23:10.095Z,7.45
2024-01-09T20:25:38.342Z,7.40
2024-01-09T20:28:05.865Z,7.43
2024-01-09T20:30:33.422Z,5.82
2024-01-09T20:33:00.757Z,7.10
2024-01-09T20:35:28.032Z,7.60
2024-01-09T20:37:55.190Z,7.30
2024-01-09T20:40:22.422Z,5.00
2024-01-09T20:42:49.564Z,8.32
2024-01-09T20:45:16.741Z,7.43
2024-01-09T20:47:45.445Z,7.53
2024-01-09T20:50:16.744Z,5.40
2024-01-09T20:52:43.996Z,6.07
2024-01-09T20:55:11.576Z,6.10
2024-01-09T20:57:38.692Z,4.35
2024-01-09T21:00:06.515Z,3.97
2024-01-09T21:02:33.764Z,3.50
2024-01-09T21:05:02.241Z,4.13
2024-01-09T21:07:29.622Z,3.67
2024-01-09T21:09:57.257Z,2.83
2024-01-09T21:12:25.275Z,3.50
2024-01-09T21:14:52.444Z,3.28
2024-01-09T21:17:20.323Z,3.70
2024-01-09T21:19:47.739Z,2.55
2024-01-09T21:22:15.019Z,3.00
2024-01-09T21:24:42.163Z,2.53
2024-01-09T21:27:09.398Z,3.00
2024-01-09T21:29:38.409Z,3.55
2024-01-09T21:32:05.712Z,2.78
2024-01-09T21:34:32.934Z,2.97
2024-01-09T21:37:00.235Z,2.90
2024-01-09T21:39:27.437Z,2.08
2024-01-09T21:41:56.586Z,3.50
2024-01-09T21:44:24.096Z,3.17
2024-01-09T21:46:51.347Z,3.72
2024-01-09T21:49:18.575Z,2.50
2024-01-09T21:51:45.727Z,2.88
2024-01-09T21:54:13.023Z,2.22
2024-01-09T21:56:40.123Z,2.80
2024-01-09T21:59:07.300Z,3.00
2024-01-09T22:01:34.635Z,2.85
2024-01-09T22:04:01.999Z,2.88
2024-01-09T22:06:29.483Z,3.00
2024-01-09T22:08:56.768Z,2.97
2024-01-09T22:11:23.915Z,2.53
2024-01-09T22:13:51.131Z,2.55
2024-01-09T22:16:22.296Z,2.55
2024-01-09T22:18:49.614Z,2.53
2024-01-09T22:21:16.875Z,3.10
2024-01-09T22:23:44.209Z,3.00
2024-01-09T22:26:18.963Z,1.58
2024-01-09T22:28:46.355Z,2.42
2024-01-09T22:31:17.143Z,2.50
2024-01-09T22:33:45.033Z,2.53
2024-01-09T22:36:15.755Z,2.53
2024-01-09T22:38:42.865Z,2.03
2024-01-09T22:41:10.053Z,2.28
2024-01-09T22:43:37.274Z,2.20
2024-01-09T22:46:04.446Z,2.38
2024-01-09T22:48:31.575Z,2.42
2024-01-09T22:50:58.752Z,2.50
2024-01-09T22:53:25.994Z,2.40
2024-01-09T22:55:53.868Z,2.50
2024-01-09T22:58:21.132Z,2.88
2024-01-09T23:00:49.145Z,2.90
2024-01-09T23:03:16.681Z,2.67
2024-01-09T23:05:44.071Z,2.83
2024-01-09T23:08:11.526Z,3.35
2024-01-09T23:10:38.742Z,3.22
2024-01-09T23:13:05.917Z,2.50
2024-01-09T23:15:33.610Z,2.55
2024-01-09T23:18:00.885Z,3.40
2024-01-09T23:20:29.039Z,3.20
2024-01-09T23:22:56.280Z,3.00
2024-01-09T23:25:23.439Z,2.88
2024-01-09T23:27:50.592Z,4.00
2024-01-09T23:30:17.937Z,3.17
2024-01-09T23:32:45.810Z,2.97
2024-01-09T23:35:14.020Z,3.30
2024-01-09T23:37:41.363Z,2.65
2024-01-09T23:40:08.885Z,3.05
2024-01-09T23:42:36.077Z,3.58
2024-01-09T23:45:03.981Z,3.05
2024-01-09T23:47:31.245Z,4.05
2024-01-09T23:49:58.553Z,3.30
2024-01-09T23:52:25.672Z,3.83
2024-01-09T23:54:52.821Z,3.92
2024-01-09T23:57:23.802Z,3.20
2024-01-09T23:59:54.511Z,3.67
